Time;durP1;ratioP1;P1;durP2;ratioP2;P2;SDS_P1;SDS_P2;PMS_P1;PMS_P2;Temp;Humidity;BMP_temperature;BMP_pressure;BME280_temperature;BME280_humidity;BME280_pressure;Samples;Min_cycle;Max_cycle;Signal;HPM_P1;HPM_P2
2024/03/03 00:00:30;;;;;;;12.52;5.68;;;;;;;;;;5012408;28;20168;-94
2024/03/03 00:02:55;;;;;;;13.18;6.65;;;;;;;;;;5012040;28;20498;-93
2024/03/03 00:05:20;;;;;;;10.18;5.60;;;;;;;;;;5013350;28;20036;-93
2024/03/03 00:07:45;;;;;;;14.32;5.03;;;;;;;;;;5012126;28;20037;-93
2024/03/03 00:10:11;;;;;;;9.13;5.55;;;;;;;;;;5013240;28;20025;-94
2024/03/03 00:12:36;;;;;;;12.40;5.05;;;;;;;;;;5012235;28;20029;-94
2024/03/03 00:15:01;;;;;;;8.00;4.97;;;;;;;;;;5011827;28;20129;-92
2024/03/03 00:17:26;;;;;;;8.80;5.03;;;;;;;;;;5011963;28;20045;-93
2024/03/03 00:19:52;;;;;;;6.07;4.07;;;;;;;;;;5012133;28;20021;-93
2024/03/03 00:22:17;;;;;;;7.78;4.30;;;;;;;;;;5011746;28;20314;-92
2024/03/03 00:24:42;;;;;;;6.07;3.92;;;;;;;;;;5011725;28;20025;-94
2024/03/03 00:27:07;;;;;;;9.27;4.70;;;;;;;;;;5011691;28;20101;-93
2024/03/03 00:29:33;;;;;;;9.45;4.00;;;;;;;;;;5011729;28;20471;-93
2024/03/03 00:31:58;;;;;;;7.38;4.35;;;;;;;;;;5011852;28;20486;-93
2024/03/03 00:34:23;;;;;;;4.60;3.17;;;;;;;;;;5011760;28;20060;-93
2024/03/03 00:36:48;;;;;;;5.03;2.70;;;;;;;;;;5011540;28;20339;-92
2024/03/03 00:39:14;;;;;;;6.93;2.22;;;;;;;;;;5011857;28;20049;-93
2024/03/03 00:41:39;;;;;;;4.72;2.30;;;;;;;;;;5011808;28;20025;-93
2024/03/03 00:44:04;;;;;;;5.65;1.92;;;;;;;;;;5011702;28;20026;-93
2024/03/03 00:46:30;;;;;;;7.72;3.10;;;;;;;;;;5011673;28;20025;-93
2024/03/03 00:48:55;;;;;;;4.20;2.50;;;;;;;;;;5011445;28;20026;-92
2024/03/03 00:51:20;;;;;;;5.95;3.25;;;;;;;;;;5011571;28;20021;-93
2024/03/03 00:53:45;;;;;;;7.87;2.77;;;;;;;;;;5011537;28;20099;-93
2024/03/03 00:56:10;;;;;;;3.53;2.03;;;;;;;;;;5011313;28;20339;-93
2024/03/03 00:58:36;;;;;;;3.88;1.60;;;;;;;;;;5011277;28;20437;-91
2024/03/03 01:01:01;;;;;;;5.43;1.70;;;;;;;;;;5011435;28;20032;-92
2024/03/03 01:03:29;;;;;;;6.75;2.10;;;;;;;;;;5012645;28;20018;-94
2024/03/03 01:05:55;;;;;;;4.35;2.10;;;;;;;;;;5011422;28;20028;-93
2024/03/03 01:08:20;;;;;;;3.95;1.60;;;;;;;;;;5011230;28;20030;-93
2024/03/03 01:10:45;;;;;;;5.50;1.90;;;;;;;;;;5011231;28;20424;-94
2024/03/03 01:13:10;;;;;;;4.22;1.80;;;;;;;;;;5011238;28;20757;-93
2024/03/03 01:15:35;;;;;;;3.95;1.92;;;;;;;;;;5011111;28;20026;-92
2024/03/03 01:18:01;;;;;;;7.03;1.90;;;;;;;;;;5011337;28;20037;-93
2024/03/03 01:20:26;;;;;;;4.07;1.55;;;;;;;;;;5011376;28;20045;-93
2024/03/03 01:22:51;;;;;;;7.22;2.17;;;;;;;;;;5011125;28;20022;-93
2024/03/03 01:25:16;;;;;;;5.05;1.98;;;;;;;;;;5010758;28;20038;-94
2024/03/03 01:27:42;;;;;;;3.72;1.90;;;;;;;;;;5012007;28;20030;-93
2024/03/03 01:30:08;;;;;;;5.65;2.20;;;;;;;;;;5015182;28;20033;-93
2024/03/03 01:32:33;;;;;;;5.25;1.85;;;;;;;;;;5015000;28;20014;-92
2024/03/03 01:34:58;;;;;;;6.47;2.08;;;;;;;;;;5014918;28;20022;-92
2024/03/03 01:37:23;;;;;;;3.33;1.88;;;;;;;;;;5014985;28;20100;-92
2024/03/03 01:39:49;;;;;;;2.80;1.50;;;;;;;;;;5014960;28;20049;-93
2024/03/03 01:42:14;;;;;;;5.82;1.73;;;;;;;;;;5015023;28;20468;-93
2024/03/03 01:44:42;;;;;;;3.33;1.92;;;;;;;;;;5014626;28;20104;-92
2024/03/03 01:47:10;;;;;;;3.38;1.90;;;;;;;;;;5014581;28;20026;-92
2024/03/03 01:49:36;;;;;;;6.80;2.83;;;;;;;;;;5014769;28;20226;-92
2024/03/03 01:52:03;;;;;;;4.65;2.13;;;;;;;;;;5014418;28;20117;-94
2024/03/03 01:54:29;;;;;;;4.10;2.00;;;;;;;;;;5014613;28;20018;-93
2024/03/03 01:56:55;;;;;;;6.07;2.28;;;;;;;;;;5014352;28;20357;-93
2024/03/03 01:59:20;;;;;;;5.07;2.55;;;;;;;;;;5014528;28;20064;-93
2024/03/03 02:01:46;;;;;;;3.40;2.25;;;;;;;;;;5014355;28;20018;-93
2024/03/03 02:04:12;;;;;;;5.32;2.50;;;;;;;;;;5014737;28;20045;-93
2024/03/03 02:06:39;;;;;;;4.32;2.22;;;;;;;;;;5014225;28;20022;-93
2024/03/03 02:09:06;;;;;;;4.82;2.03;;;;;;;;;;5014349;28;20128;-93
2024/03/03 02:11:32;;;;;;;6.22;2.70;;;;;;;;;;5014160;28;20018;-93
2024/03/03 02:13:57;;;;;;;5.35;2.72;;;;;;;;;;5014097;28;20388;-93
2024/03/03 02:16:23;;;;;;;4.60;2.55;;;;;;;;;;5014303;28;20018;-92
2024/03/03 02:18:48;;;;;;;6.47;2.53;;;;;;;;;;5014219;28;20026;-92
2024/03/03 02:21:13;;;;;;;9.27;2.75;;;;;;;;;;5014051;28;20076;-93
2024/03/03 02:23:38;;;;;;;7.30;2.70;;;;;;;;;;5015312;28;20052;-93
2024/03/03 02:26:04;;;;;;;10.25;2.72;;;;;;;;;;5015231;28;20034;-93
2024/03/03 02:28:30;;;;;;;4.88;2.92;;;;;;;;;;5014079;28;20030;-93
2024/03/03 02:30:55;;;;;;;11.32;2.78;;;;;;;;;;5015188;28;20531;-93
2024/03/03 02:33:20;;;;;;;11.13;3.25;;;;;;;;;;5013848;28;20126;-93
2024/03/03 02:35:45;;;;;;;4.75;2.38;;;;;;;;;;5013928;28;20476;-93
2024/03/03 02:38:11;;;;;;;3.60;2.45;;;;;;;;;;5013939;28;20112;-93
2024/03/03 02:40:36;;;;;;;5.38;2.35;;;;;;;;;;5013810;28;20053;-92
2024/03/03 02:43:02;;;;;;;7.95;2.42;;;;;;;;;;5014892;28;20060;-92
2024/03/03 02:45:27;;;;;;;2.95;2.00;;;;;;;;;;5013910;28;20076;-92
2024/03/03 02:47:53;;;;;;;10.25;3.13;;;;;;;;;;5013626;28;20022;-92
2024/03/03 02:50:19;;;;;;;3.72;2.53;;;;;;;;;;5013700;28;20043;-93
2024/03/03 02:52:44;;;;;;;2.92;2.20;;;;;;;;;;5013437;28;20020;-93
2024/03/03 02:55:09;;;;;;;3.72;2.50;;;;;;;;;;5013357;28;20032;-92
2024/03/03 02:57:35;;;;;;;3.57;2.30;;;;;;;;;;5013308;28;20430;-93
2024/03/03 03:00:00;;;;;;;4.93;2.80;;;;;;;;;;5013526;28;20745;-92
2024/03/03 03:02:25;;;;;;;4.88;2.35;;;;;;;;;;5013502;28;20017;-93
2024/03/03 03:04:52;;;;;;;3.95;2.05;;;;;;;;;;5013428;28;20022;-93
2024/03/03 03:07:17;;;;;;;6.97;2.50;;;;;;;;;;5013372;28;20060;-92
2024/03/03 03:09:44;;;;;;;3.17;2.08;;;;;;;;;;5013377;28;20464;-93
2024/03/03 03:12:09;;;;;;;4.82;2.08;;;;;;;;;;5013162;28;20073;-92
2024/03/03 03:14:34;;;;;;;6.27;2.40;;;;;;;;;;5014539;28;20017;-93
2024/03/03 03:17:00;;;;;;;6.82;2.30;;;;;;;;;;5012853;28;20251;-92
2024/03/03 03:19:26;;;;;;;6.18;2.53;;;;;;;;;;5014112;28;20022;-93
2024/03/03 03:21:51;;;;;;;3.67;2.20;;;;;;;;;;5013087;28;20117;-93
2024/03/03 03:24:17;;;;;;;8.10;2.20;;;;;;;;;;5013102;28;20105;-93
2024/03/03 03:26:42;;;;;;;6.03;2.67;;;;;;;;;;5012719;28;20065;-93
2024/03/03 03:29:07;;;;;;;4.78;2.35;;;;;;;;;;5012965;28;20058;-93
2024/03/03 03:31:32;;;;;;;8.73;2.95;;;;;;;;;;5012918;28;20014;-93
2024/03/03 03:33:58;;;;;;;9.77;2.38;;;;;;;;;;5012918;28;20026;-92
2024/03/03 03:36:23;;;;;;;5.50;2.80;;;;;;;;;;5012841;28;20384;-93
2024/03/03 03:38:48;;;;;;;7.25;3.10;;;;;;;;;;5012821;28;20765;-94
2024/03/03 03:41:13;;;;;;;9.53;2.93;;;;;;;;;;5012944;28;20380;-93
2024/03/03 03:43:38;;;;;;;6.40;3.03;;;;;;;;;;5012964;28;20784;-93
2024/03/03 03:46:04;;;;;;;4.90;3.08;;;;;;;;;;5012954;28;20266;-92
2024/03/03 03:48:29;;;;;;;5.25;2.78;;;;;;;;;;5014235;28;20388;-93
2024/03/03 03:50:54;;;;;;;9.05;2.80;;;;;;;;;;5014071;28;20022;-93
2024/03/03 03:53:20;;;;;;;8.13;3.03;;;;;;;;;;5012689;28;20018;-92
2024/03/03 03:55:45;;;;;;;9.68;3.13;;;;;;;;;;5012240;28;20025;-93
2024/03/03 03:58:10;;;;;;;5.20;3.53;;;;;;;;;;5012435;28;20029;-92
2024/03/03 04:00:36;;;;;;;7.88;3.85;;;;;;;;;;5012247;28;20515;-93
2024/03/03 04:03:01;;;;;;;6.03;3.00;;;;;;;;;;5012262;28;20468;-92
2024/03/03 04:05:26;;;;;;;6.13;2.87;;;;;;;;;;5012023;28;20116;-93
2024/03/03 04:07:51;;;;;;;7.10;3.27;;;;;;;;;;5012106;28;20287;-92
2024/03/03 04:10:18;;;;;;;9.73;3.80;;;;;;;;;;5011909;28;20309;-93
2024/03/03 04:12:46;;;;;;;8.75;3.60;;;;;;;;;;5011819;28;20262;-93
2024/03/03 04:15:12;;;;;;;8.93;3.92;;;;;;;;;;5012051;28;20113;-93
2024/03/03 04:17:37;;;;;;;8.07;4.25;;;;;;;;;;5013393;28;20522;-92
2024/03/03 04:20:04;;;;;;;6.38;4.13;;;;;;;;;;5013235;28;20021;-93
2024/03/03 04:22:30;;;;;;;7.22;3.28;;;;;;;;;;5011795;28;20029;-93
2024/03/03 04:24:55;;;;;;;5.75;3.33;;;;;;;;;;5013054;28;20010;-92
2024/03/03 04:27:20;;;;;;;11.65;4.38;;;;;;;;;;5013139;28;20536;-92
2024/03/03 04:29:50;;;;;;;7.10;3.15;;;;;;;;;;4995769;28;20053;-93
2024/03/03 04:32:16;;;;;;;13.63;4.55;;;;;;;;;;5011545;28;20068;-92
2024/03/03 04:34:41;;;;;;;9.00;4.32;;;;;;;;;;5011720;28;20038;-93
2024/03/03 04:37:07;;;;;;;7.35;3.60;;;;;;;;;;5011332;28;20547;-93
2024/03/03 04:39:33;;;;;;;5.32;3.75;;;;;;;;;;5011745;28;20030;-93
2024/03/03 04:41:59;;;;;;;5.30;3.60;;;;;;;;;;5011734;28;20018;-92
2024/03/03 04:44:24;;;;;;;8.95;4.65;;;;;;;;;;5011765;28;20475;-93
2024/03/03 04:46:49;;;;;;;5.68;3.13;;;;;;;;;;5011458;28;20481;-93
2024/03/03 04:49:14;;;;;;;7.93;3.53;;;;;;;;;;5011443;28;20030;-92
2024/03/03 04:51:40;;;;;;;5.03;3.20;;;;;;;;;;5011480;28;20471;-93
2024/03/03 04:54:05;;;;;;;4.95;2.83;;;;;;;;;;5011275;28;20502;-93
2024/03/03 04:56:30;;;;;;;6.10;2.63;;;;;;;;;;5011434;28;20022;-92
2024/03/03 04:58:55;;;;;;;5.85;2.25;;;;;;;;;;5012744;28;20054;-92
2024/03/03 05:01:20;;;;;;;8.48;2.50;;;;;;;;;;5011251;28;20058;-91
2024/03/03 05:03:46;;;;;;;3.70;2.17;;;;;;;;;;5011845;28;20025;-93
2024/03/03 05:06:11;;;;;;;6.75;2.20;;;;;;;;;;5011230;28;20187;-93
2024/03/03 05:08:37;;;;;;;7.78;2.60;;;;;;;;;;5011145;28;20503;-93
2024/03/03 05:11:02;;;;;;;3.83;2.42;;;;;;;;;;5011074;28;20460;-92
2024/03/03 05:13:27;;;;;;;6.90;2.92;;;;;;;;;;5011394;28;20044;-92
2024/03/03 05:15:52;;;;;;;8.02;2.42;;;;;;;;;;5011261;28;20021;-92
2024/03/03 05:18:18;;;;;;;3.97;2.08;;;;;;;;;;5011238;28;20022;-94
2024/03/03 05:20:44;;;;;;;5.75;2.55;;;;;;;;;;5011223;28;20020;-93
2024/03/03 05:23:09;;;;;;;5.03;2.60;;;;;;;;;;5011033;28;20034;-93
2024/03/03 05:25:35;;;;;;;4.88;1.85;;;;;;;;;;5011068;28;20030;-93
2024/03/03 05:28:00;;;;;;;5.22;2.78;;;;;;;;;;5010927;28;20087;-92
2024/03/03 05:30:26;;;;;;;7.35;2.72;;;;;;;;;;5011408;28;20523;-92
2024/03/03 05:32:52;;;;;;;5.60;3.03;;;;;;;;;;5010979;28;20022;-93
2024/03/03 05:35:17;;;;;;;8.27;3.35;;;;;;;;;;5010839;28;20021;-92
2024/03/03 05:37:42;;;;;;;7.60;3.50;;;;;;;;;;5010900;28;20030;-92
2024/03/03 05:40:08;;;;;;;7.18;3.72;;;;;;;;;;5010846;28;20471;-92
2024/03/03 05:42:34;;;;;;;6.32;3.35;;;;;;;;;;5011070;28;20280;-93
2024/03/03 05:44:59;;;;;;;10.70;3.40;;;;;;;;;;5010804;28;20260;-92
2024/03/03 05:47:24;;;;;;;12.65;3.80;;;;;;;;;;5010899;28;20128;-93
2024/03/03 05:49:49;;;;;;;11.73;3.75;;;;;;;;;;5010981;28;20116;-92
2024/03/03 05:52:14;;;;;;;5.70;4.10;;;;;;;;;;5011050;28;20472;-93
2024/03/03 05:54:40;;;;;;;10.98;3.90;;;;;;;;;;5011124;28;20033;-93
2024/03/03 05:57:05;;;;;;;11.82;5.70;;;;;;;;;;5011522;28;20032;-93
2024/03/03 05:59:30;;;;;;;8.20;4.57;;;;;;;;;;5011478;28;20022;-92
2024/03/03 06:01:55;;;;;;;9.88;4.82;;;;;;;;;;5011531;28;20045;-92
2024/03/03 06:04:21;;;;;;;4.70;3.65;;;;;;;;;;5011486;28;20034;-92
2024/03/03 06:06:46;;;;;;;10.18;3.50;;;;;;;;;;5011781;28;20021;-92
2024/03/03 06:09:12;;;;;;;10.93;4.07;;;;;;;;;;5011340;28;20491;-92
2024/03/03 06:11:41;;;;;;;8.40;4.28;;;;;;;;;;5011466;28;20431;-92
2024/03/03 06:14:06;;;;;;;13.63;4.30;;;;;;;;;;5013603;28;20471;-93
2024/03/03 06:16:32;;;;;;;9.07;4.53;;;;;;;;;;5015672;28;20110;-92
2024/03/03 06:18:57;;;;;;;7.85;3.85;;;;;;;;;;5015603;28;20025;-92
2024/03/03 06:21:22;;;;;;;17.48;5.75;;;;;;;;;;5015056;28;20018;-93
2024/03/03 06:23:47;;;;;;;12.40;5.55;;;;;;;;;;5014754;28;20025;-93
2024/03/03 06:26:16;;;;;;;8.13;4.80;;;;;;;;;;5016259;28;20361;-93
2024/03/03 06:28:44;;;;;;;12.77;6.13;;;;;;;;;;5014262;28;20029;-92
2024/03/03 06:31:10;;;;;;;9.98;5.38;;;;;;;;;;5014104;28;20029;-93
2024/03/03 06:33:35;;;;;;;10.35;5.13;;;;;;;;;;5014062;28;20026;-94
2024/03/03 06:36:00;;;;;;;11.13;6.50;;;;;;;;;;5013817;28;20472;-93
2024/03/03 06:38:25;;;;;;;11.18;5.57;;;;;;;;;;5013931;28;20480;-93
2024/03/03 06:40:50;;;;;;;10.48;5.63;;;;;;;;;;5013866;28;20486;-93
2024/03/03 06:43:16;;;;;;;11.07;6.35;;;;;;;;;;5013728;28;20429;-93
2024/03/03 06:45:41;;;;;;;11.65;6.03;;;;;;;;;;5014234;28;20474;-93
2024/03/03 06:48:06;;;;;;;11.63;6.82;;;;;;;;;;5013895;28;20030;-92
2024/03/03 06:50:31;;;;;;;10.50;6.88;;;;;;;;;;5013828;28;20503;-92
2024/03/03 06:52:57;;;;;;;13.00;7.03;;;;;;;;;;5013555;28;20029;-92
2024/03/03 06:55:22;;;;;;;12.90;7.13;;;;;;;;;;5013749;28;20239;-93
2024/03/03 06:57:47;;;;;;;11.15;6.38;;;;;;;;;;5013511;28;20379;-92
2024/03/03 07:00:13;;;;;;;14.85;6.70;;;;;;;;;;5013401;28;20353;-92
2024/03/03 07:03:04;;;;;;;9.85;5.93;;;;;;;;;;5013282;28;20361;-92
2024/03/03 07:05:29;;;;;;;14.88;6.25;;;;;;;;;;5012934;28;20522;-92
2024/03/03 07:07:54;;;;;;;10.05;5.45;;;;;;;;;;5013092;28;20026;-92
2024/03/03 07:10:19;;;;;;;12.55;5.97;;;;;;;;;;5013155;28;20068;-92
2024/03/03 07:12:45;;;;;;;8.73;5.40;;;;;;;;;;5013237;28;20018;-92
2024/03/03 07:15:10;;;;;;;10.98;6.30;;;;;;;;;;5013319;28;20013;-92
2024/03/03 07:17:35;;;;;;;10.80;6.68;;;;;;;;;;5013040;28;20075;-92
2024/03/03 07:20:03;;;;;;;14.03;6.40;;;;;;;;;;5012976;28;20100;-92
2024/03/03 07:22:33;;;;;;;10.38;6.13;;;;;;;;;;5013089;28;20255;-93
2024/03/03 07:24:58;;;;;;;13.50;6.38;;;;;;;;;;5012184;28;20014;-93
2024/03/03 07:27:23;;;;;;;9.35;5.88;;;;;;;;;;5012622;28;20434;-91
2024/03/03 07:29:48;;;;;;;11.05;5.70;;;;;;;;;;5013139;28;20044;-92
2024/03/03 07:32:14;;;;;;;11.60;6.03;;;;;;;;;;5013075;28;20024;-92
2024/03/03 07:34:41;;;;;;;9.63;6.47;;;;;;;;;;5012773;28;20282;-91
2024/03/03 07:37:07;;;;;;;16.98;6.25;;;;;;;;;;5013311;28;20018;-91
2024/03/03 07:39:32;;;;;;;17.33;8.70;;;;;;;;;;5012987;28;20025;-91
2024/03/03 07:41:57;;;;;;;21.00;9.55;;;;;;;;;;5012810;28;20252;-92
2024/03/03 07:44:22;;;;;;;28.47;12.63;;;;;;;;;;5013078;28;20036;-92
2024/03/03 07:46:47;;;;;;;21.80;12.07;;;;;;;;;;5012725;28;20343;-92
2024/03/03 07:49:13;;;;;;;24.88;12.55;;;;;;;;;;5013800;28;20038;-92
2024/03/03 07:51:38;;;;;;;16.87;10.17;;;;;;;;;;5012488;28;20494;-92
2024/03/03 07:54:03;;;;;;;16.58;8.45;;;;;;;;;;5012277;28;20251;-91
2024/03/03 07:56:29;;;;;;;14.75;7.82;;;;;;;;;;5012369;28;20032;-91
2024/03/03 07:58:55;;;;;;;16.27;8.88;;;;;;;;;;5013656;28;20017;-92
2024/03/03 08:01:20;;;;;;;13.07;7.90;;;;;;;;;;5013490;28;20105;-91
2024/03/03 08:03:45;;;;;;;13.53;7.33;;;;;;;;;;5011962;28;20109;-92
2024/03/03 08:06:11;;;;;;;12.40;7.47;;;;;;;;;;5011841;28;20255;-92
2024/03/03 08:08:37;;;;;;;20.08;8.95;;;;;;;;;;5012144;28;20442;-92
2024/03/03 08:11:02;;;;;;;19.60;7.75;;;;;;;;;;5011654;28;20026;-92
2024/03/03 08:13:27;;;;;;;14.98;8.45;;;;;;;;;;5011910;28;20153;-92
2024/03/03 08:15:53;;;;;;;14.27;8.32;;;;;;;;;;5011655;28;20014;-91
2024/03/03 08:18:18;;;;;;;16.10;7.90;;;;;;;;;;5011714;28;20061;-91
2024/03/03 08:20:43;;;;;;;15.15;8.88;;;;;;;;;;5011680;28;20010;-92
2024/03/03 08:23:08;;;;;;;10.63;7.63;;;;;;;;;;5011692;28;20022;-92
2024/03/03 08:25:34;;;;;;;19.10;9.23;;;;;;;;;;5011558;28;20060;-92
2024/03/03 08:28:02;;;;;;;15.52;8.93;;;;;;;;;;5011392;28;20057;-92
2024/03/03 08:30:28;;;;;;;17.83;9.75;;;;;;;;;;5011496;28;20018;-91
2024/03/03 08:32:53;;;;;;;21.45;10.30;;;;;;;;;;5012695;28;20028;-93
2024/03/03 08:35:18;;;;;;;18.30;10.07;;;;;;;;;;5011505;28;20029;-92
2024/03/03 08:37:45;;;;;;;15.43;9.50;;;;;;;;;;5011452;28;20017;-92
2024/03/03 08:40:11;;;;;;;22.27;9.70;;;;;;;;;;5011287;28;20761;-92
2024/03/03 08:42:36;;;;;;;13.80;9.32;;;;;;;;;;5011619;28;20025;-92
2024/03/03 08:45:01;;;;;;;16.17;9.57;;;;;;;;;;5013647;28;20484;-92
2024/03/03 08:47:27;;;;;;;14.07;9.35;;;;;;;;;;5011000;28;20030;-92
2024/03/03 08:49:52;;;;;;;12.55;7.95;;;;;;;;;;5011507;28;20467;-91
2024/03/03 08:52:17;;;;;;;9.57;6.25;;;;;;;;;;5011089;28;20590;-91
2024/03/03 08:54:43;;;;;;;11.93;6.15;;;;;;;;;;5012301;28;20492;-92
2024/03/03 08:57:08;;;;;;;10.43;5.47;;;;;;;;;;5012369;28;20018;-92
2024/03/03 08:59:33;;;;;;;11.85;6.55;;;;;;;;;;5011195;28;20033;-92
2024/03/03 09:01:58;;;;;;;9.60;5.43;;;;;;;;;;5010867;28;20018;-91
2024/03/03 09:04:23;;;;;;;7.93;5.50;;;;;;;;;;5010993;28;20026;-91
2024/03/03 09:06:49;;;;;;;11.20;6.85;;;;;;;;;;5010888;28;20064;-93
2024/03/03 09:09:16;;;;;;;11.17;6.07;;;;;;;;;;5010720;28;20041;-92
2024/03/03 09:11:43;;;;;;;8.63;6.15;;;;;;;;;;5012274;28;20666;-92
2024/03/03 09:14:09;;;;;;;7.85;5.53;;;;;;;;;;5012365;28;20380;-91
2024/03/03 09:16:34;;;;;;;9.43;5.10;;;;;;;;;;5010851;28;20022;-92
2024/03/03 09:18:59;;;;;;;9.38;5.32;;;;;;;;;;5010694;28;20052;-92
2024/03/03 09:21:24;;;;;;;7.73;4.80;;;;;;;;;;5010678;28;20448;-92
2024/03/03 09:23:50;;;;;;;7.87;5.70;;;;;;;;;;5010897;28;20824;-91
2024/03/03 09:26:15;;;;;;;8.45;5.45;;;;;;;;;;5011863;28;20342;-92
2024/03/03 09:28:41;;;;;;;8.35;4.82;;;;;;;;;;5010845;28;20030;-92
2024/03/03 09:31:06;;;;;;;10.98;5.43;;;;;;;;;;5010663;28;20025;-92
2024/03/03 09:33:31;;;;;;;6.65;4.40;;;;;;;;;;5010863;28;20022;-93
2024/03/03 09:35:56;;;;;;;6.90;4.55;;;;;;;;;;5011806;28;20136;-92
2024/03/03 09:38:22;;;;;;;7.73;4.43;;;;;;;;;;5010788;28;20484;-92
2024/03/03 09:40:47;;;;;;;8.98;4.68;;;;;;;;;;5012066;28;20843;-92
2024/03/03 09:43:14;;;;;;;9.13;4.80;;;;;;;;;;5010718;28;20479;-92
2024/03/03 09:45:39;;;;;;;8.20;4.80;;;;;;;;;;5010434;28;20101;-92
2024/03/03 09:48:07;;;;;;;9.88;5.50;;;;;;;;;;5010687;28;20168;-92
2024/03/03 09:50:33;;;;;;;7.93;5.47;;;;;;;;;;5015475;28;20041;-93
2024/03/03 09:53:00;;;;;;;10.25;5.55;;;;;;;;;;5014342;28;20026;-92
2024/03/03 09:55:27;;;;;;;10.32;5.72;;;;;;;;;;5015464;28;20065;-93
2024/03/03 09:57:52;;;;;;;10.25;5.10;;;;;;;;;;5014139;28;20030;-92
2024/03/03 10:00:17;;;;;;;11.43;5.75;;;;;;;;;;5014097;28;20018;-92
2024/03/03 10:02:43;;;;;;;11.90;6.00;;;;;;;;;;5015537;28;20022;-92
2024/03/03 10:05:09;;;;;;;8.65;5.53;;;;;;;;;;5014195;28;20088;-92
2024/03/03 10:07:54;;;;;;;11.15;5.80;;;;;;;;;;5015023;28;20367;-91
2024/03/03 10:10:22;;;;;;;10.10;5.72;;;;;;;;;;5015033;28;20111;-92
2024/03/03 10:12:48;;;;;;;9.48;5.85;;;;;;;;;;5013992;28;20353;-92
2024/03/03 10:15:14;;;;;;;10.50;6.05;;;;;;;;;;5013949;28;20041;-93
2024/03/03 10:17:40;;;;;;;11.43;6.75;;;;;;;;;;5014934;28;20028;-92
2024/03/03 10:20:07;;;;;;;17.25;8.95;;;;;;;;;;5015038;28;20022;-92
2024/03/03 10:22:33;;;;;;;14.45;6.68;;;;;;;;;;5015046;28;20017;-92
2024/03/03 10:25:12;;;;;;;10.38;6.10;;;;;;;;;;5013607;28;20014;-92
2024/03/03 10:27:42;;;;;;;14.88;6.50;;;;;;;;;;5014880;28;20022;-92
2024/03/03 10:30:09;;;;;;;9.30;5.80;;;;;;;;;;5013364;28;20111;-91
2024/03/03 10:32:34;;;;;;;8.90;5.07;;;;;;;;;;5014653;28;20375;-92
2024/03/03 10:35:03;;;;;;;8.55;4.32;;;;;;;;;;5014603;28;20022;-92
2024/03/03 10:37:28;;;;;;;9.25;4.35;;;;;;;;;;5013437;28;20460;-92
2024/03/03 10:39:53;;;;;;;9.55;3.72;;;;;;;;;;5014396;28;20020;-92
2024/03/03 10:42:19;;;;;;;9.10;4.13;;;;;;;;;;5013339;28;20030;-92
2024/03/03 10:44:44;;;;;;;9.07;4.90;;;;;;;;;;5013345;28;20722;-92
2024/03/03 10:47:10;;;;;;;7.83;3.90;;;;;;;;;;5014239;28;20431;-92
2024/03/03 10:49:37;;;;;;;6.40;3.33;;;;;;;;;;5013183;28;20749;-92
2024/03/03 10:52:03;;;;;;;7.80;3.20;;;;;;;;;;5013029;28;20028;-91
2024/03/03 10:54:29;;;;;;;7.50;3.00;;;;;;;;;;5014117;28;20030;-91
2024/03/03 10:56:55;;;;;;;6.80;3.17;;;;;;;;;;5014109;28;20021;-91
2024/03/03 10:59:21;;;;;;;7.32;3.35;;;;;;;;;;5013989;28;20105;-91
2024/03/03 11:01:47;;;;;;;5.97;3.45;;;;;;;;;;5021243;28;20488;-91
2024/03/03 11:04:13;;;;;;;6.25;3.08;;;;;;;;;;5015031;28;20010;-91
2024/03/03 11:06:39;;;;;;;3.95;2.42;;;;;;;;;;5013919;28;20028;-91
2024/03/03 11:09:05;;;;;;;4.57;2.10;;;;;;;;;;5013895;28;20045;-91
2024/03/03 11:11:32;;;;;;;4.50;1.90;;;;;;;;;;5014276;28;20021;-91
2024/03/03 11:14:00;;;;;;;4.13;2.00;;;;;;;;;;5014185;28;20018;-90
2024/03/03 11:16:29;;;;;;;4.93;2.15;;;;;;;;;;5013182;28;20018;-90
2024/03/03 11:18:57;;;;;;;5.70;2.28;;;;;;;;;;5014762;28;20109;-90
2024/03/03 11:21:26;;;;;;;5.20;1.30;;;;;;;;;;5014141;28;20488;-90
2024/03/03 11:23:57;;;;;;;4.80;1.83;;;;;;;;;;5013875;28;20024;-91
2024/03/03 11:26:22;;;;;;;5.75;1.85;;;;;;;;;;5013682;28;20022;-92
2024/03/03 11:28:51;;;;;;;3.63;1.70;;;;;;;;;;5013491;28;20051;-90
2024/03/03 11:31:16;;;;;;;3.72;1.83;;;;;;;;;;5013657;28;20101;-91
2024/03/03 11:33:42;;;;;;;4.75;1.80;;;;;;;;;;5012251;28;20105;-91
2024/03/03 11:36:07;;;;;;;2.10;1.50;;;;;;;;;;5013429;28;20017;-91
2024/03/03 11:38:40;;;;;;;4.32;1.60;;;;;;;;;;5012377;28;20105;-90
2024/03/03 11:41:07;;;;;;;4.47;1.80;;;;;;;;;;5012020;28;20022;-91
2024/03/03 11:43:33;;;;;;;2.65;1.33;;;;;;;;;;5013456;28;20022;-91
2024/03/03 11:45:58;;;;;;;3.75;1.33;;;;;;;;;;5013197;28;20056;-90
2024/03/03 11:48:23;;;;;;;6.13;1.40;;;;;;;;;;5012019;28;20419;-90
2024/03/03 11:50:49;;;;;;;2.03;1.00;;;;;;;;;;5013624;28;20741;-90
2024/03/03 11:53:20;;;;;;;4.30;0.87;;;;;;;;;;5013482;28;20141;-91
2024/03/03 11:55:47;;;;;;;1.40;0.85;;;;;;;;;;5012987;28;20255;-91
2024/03/03 11:58:17;;;;;;;4.40;1.30;;;;;;;;;;5013295;28;20033;-91
2024/03/03 12:00:43;;;;;;;4.60;1.88;;;;;;;;;;5013115;28;20030;-91
2024/03/03 12:03:08;;;;;;;4.57;1.15;;;;;;;;;;5012865;28;20021;-91
2024/03/03 12:05:34;;;;;;;5.53;1.27;;;;;;;;;;5012860;28;20026;-91
2024/03/03 12:08:00;;;;;;;2.40;1.00;;;;;;;;;;5012883;28;20512;-91
2024/03/03 12:10:26;;;;;;;2.60;1.25;;;;;;;;;;5012957;28;20104;-91
2024/03/03 12:12:56;;;;;;;6.72;1.27;;;;;;;;;;5011338;28;20018;-92
2024/03/03 12:15:22;;;;;;;4.07;1.30;;;;;;;;;;5012906;28;20480;-91
2024/03/03 12:17:48;;;;;;;2.78;1.35;;;;;;;;;;5012682;28;20101;-91
2024/03/03 12:20:15;;;;;;;3.92;1.17;;;;;;;;;;5012818;28;20471;-92
2024/03/03 12:22:40;;;;;;;2.80;1.25;;;;;;;;;;5012580;28;20053;-92
2024/03/03 12:25:05;;;;;;;4.35;1.45;;;;;;;;;;5012586;28;20391;-91
2024/03/03 12:27:31;;;;;;;2.15;1.13;;;;;;;;;;5012692;28;20026;-92
2024/03/03 12:29:57;;;;;;;3.15;1.27;;;;;;;;;;5012666;28;20022;-92
2024/03/03 12:32:22;;;;;;;3.05;1.27;;;;;;;;;;5012600;28;20025;-93
2024/03/03 12:34:48;;;;;;;3.58;1.42;;;;;;;;;;5012418;28;20502;-92
2024/03/03 12:37:13;;;;;;;3.42;1.35;;;;;;;;;;5012408;28;20519;-92
2024/03/03 12:39:38;;;;;;;2.40;1.40;;;;;;;;;;5011328;28;20133;-92
2024/03/03 12:42:04;;;;;;;12.85;1.23;;;;;;;;;;5011171;28;20800;-92
2024/03/03 12:44:33;;;;;;;3.63;1.42;;;;;;;;;;5012832;28;20017;-93
2024/03/03 12:46:59;;;;;;;2.30;0.90;;;;;;;;;;5013754;28;20045;-93
2024/03/03 12:49:24;;;;;;;2.53;1.00;;;;;;;;;;5011169;28;20068;-93
2024/03/03 12:51:50;;;;;;;2.03;1.10;;;;;;;;;;5011389;28;20362;-93
2024/03/03 12:54:16;;;;;;;7.47;1.30;;;;;;;;;;5011301;28;20680;-93
2024/03/03 12:56:41;;;;;;;2.47;1.13;;;;;;;;;;5012280;28;20478;-93
2024/03/03 12:59:06;;;;;;;3.15;1.02;;;;;;;;;;5012377;28;20029;-93
2024/03/03 13:01:31;;;;;;;3.78;1.20;;;;;;;;;;5011015;28;20064;-92
2024/03/03 13:03:57;;;;;;;2.13;0.80;;;;;;;;;;5011108;28;20057;-93
2024/03/03 13:06:22;;;;;;;2.20;0.90;;;;;;;;;;5012723;28;20282;-93
2024/03/03 13:08:52;;;;;;;4.63;1.67;;;;;;;;;;5010739;28;20298;-92
2024/03/03 13:11:18;;;;;;;1.38;0.80;;;;;;;;;;5012561;28;20022;-93
2024/03/03 13:13:44;;;;;;;1.33;1.00;;;;;;;;;;5010940;28;20026;-92
2024/03/03 13:16:09;;;;;;;3.55;1.48;;;;;;;;;;5011000;28;20041;-93
2024/03/03 13:18:36;;;;;;;3.83;1.27;;;;;;;;;;5010926;28;20088;-93
2024/03/03 13:21:11;;;;;;;2.88;1.23;;;;;;;;;;5010704;28;20018;-92
2024/03/03 13:23:36;;;;;;;2.53;0.85;;;;;;;;;;5013157;28;20374;-93
2024/03/03 13:26:02;;;;;;;3.20;0.98;;;;;;;;;;5016105;28;20112;-92
2024/03/03 13:28:27;;;;;;;1.38;0.57;;;;;;;;;;5014794;28;20128;-92
2024/03/03 13:30:58;;;;;;;1.70;0.83;;;;;;;;;;5014538;28;20028;-93
2024/03/03 13:33:24;;;;;;;;;;;;;;;;;;5016515;28;20262;-91
2024/03/03 13:35:49;;;;;;;3.87;1.00;;;;;;;;;;5014615;28;19905;-93
2024/03/03 13:38:15;;;;;;;0.80;0.50;;;;;;;;;;5015900;28;20259;-92
2024/03/03 13:40:40;;;;;;;1.98;0.60;;;;;;;;;;5015888;28;20255;-91
2024/03/03 13:43:06;;;;;;;2.80;0.77;;;;;;;;;;5015711;28;20022;-92
2024/03/03 13:45:32;;;;;;;4.03;0.90;;;;;;;;;;5015670;28;20407;-94
2024/03/03 13:47:57;;;;;;;2.75;1.08;;;;;;;;;;5014478;28;20018;-92
2024/03/03 13:50:22;;;;;;;2.30;1.00;;;;;;;;;;5015733;28;20073;-92
2024/03/03 13:52:48;;;;;;;2.73;1.13;;;;;;;;;;5014489;28;20251;-91
2024/03/03 13:55:13;;;;;;;2.73;1.30;;;;;;;;;;5015245;28;20251;-92
2024/03/03 13:57:38;;;;;;;2.55;1.10;;;;;;;;;;5014494;28;20259;-92
2024/03/03 14:00:09;;;;;;;5.50;1.70;;;;;;;;;;5014191;28;20071;-93
2024/03/03 14:02:34;;;;;;;2.10;1.10;;;;;;;;;;5015279;28;20044;-92
2024/03/03 14:04:59;;;;;;;1.92;1.23;;;;;;;;;;5014121;28;20488;-92
2024/03/03 14:07:25;;;;;;;4.10;1.37;;;;;;;;;;5015316;28;20032;-92
2024/03/03 14:09:50;;;;;;;3.33;1.05;;;;;;;;;;5013874;28;20278;-93
2024/03/03 14:12:15;;;;;;;2.03;0.82;;;;;;;;;;5015191;28;20022;-92
2024/03/03 14:14:41;;;;;;;2.30;0.83;;;;;;;;;;5015168;28;20018;-92
2024/03/03 14:17:06;;;;;;;1.75;1.15;;;;;;;;;;5015064;28;20248;-92
2024/03/03 14:19:32;;;;;;;4.40;1.13;;;;;;;;;;5015127;28;20427;-93
2024/03/03 14:21:57;;;;;;;2.95;1.13;;;;;;;;;;5013919;28;20280;-93
2024/03/03 14:24:22;;;;;;;6.73;2.33;;;;;;;;;;5014845;28;20484;-92
2024/03/03 14:26:47;;;;;;;3.00;1.25;;;;;;;;;;5013599;28;20263;-92
2024/03/03 14:29:13;;;;;;;4.13;1.07;;;;;;;;;;5014556;28;20030;-92
2024/03/03 14:31:38;;;;;;;5.18;1.27;;;;;;;;;;5014905;28;20258;-92